Time;durP1;ratioP1;P1;durP2;ratioP2;P2;SDS_P1;SDS_P2;PMS_P1;PMS_P2;Temp;Humidity;BMP_temperature;BMP_pressure;BME280_temperature;BME280_humidity;BME280_pressure;Samples;Min_cycle;Max_cycle;Signal;HPM_P1;HPM_P2
2021/06/22 00:01:45;;;;;;;701.15;496.80;;;;;;;;;;5091259;28;20030;-79
2021/06/22 00:04:11;;;;;;;696.75;491.38;;;;;;;;;;5080358;28;20454;-79
2021/06/22 00:06:37;;;;;;;708.50;503.88;;;;;;;;;;5076749;28;20112;-79
2021/06/22 00:09:03;;;;;;;698.20;501.95;;;;;;;;;;5086131;28;20031;-80
2021/06/22 00:11:29;;;;;;;690.15;493.98;;;;;;;;;;5079965;28;20047;-78
2021/06/22 00:13:55;;;;;;;644.33;445.58;;;;;;;;;;5074779;28;20051;-78
2021/06/22 00:16:21;;;;;;;667.08;472.83;;;;;;;;;;5076307;28;20020;-79
2021/06/22 00:18:47;;;;;;;679.17;472.95;;;;;;;;;;5082351;28;20085;-79
2021/06/22 00:21:13;;;;;;;554.15;380.90;;;;;;;;;;5073281;28;20594;-78
2021/06/22 00:23:39;;;;;;;517.60;352.98;;;;;;;;;;5067604;28;20024;-80
2021/06/22 00:26:05;;;;;;;513.85;350.17;;;;;;;;;;5070059;28;20143;-80
2021/06/22 00:28:31;;;;;;;531.33;371.88;;;;;;;;;;5066496;28;20012;-79
2021/06/22 00:30:57;;;;;;;549.92;374.65;;;;;;;;;;5070549;28;20032;-80
2021/06/22 00:33:23;;;;;;;556.10;384.80;;;;;;;;;;5066089;28;20074;-78
2021/06/22 00:35:49;;;;;;;578.45;401.75;;;;;;;;;;5083314;28;20068;-79
2021/06/22 00:38:15;;;;;;;600.13;413.80;;;;;;;;;;5068795;28;20078;-78
2021/06/22 00:40:41;;;;;;;567.55;393.15;;;;;;;;;;5069971;28;20332;-79
2021/06/22 00:43:07;;;;;;;604.22;428.48;;;;;;;;;;5066894;28;20021;-79
2021/06/22 00:45:33;;;;;;;598.97;422.52;;;;;;;;;;5065495;28;20028;-79
2021/06/22 00:48:00;;;;;;;614.42;427.30;;;;;;;;;;5067927;28;20032;-78
2021/06/22 00:50:26;;;;;;;665.85;473.83;;;;;;;;;;5066983;28;20031;-78
2021/06/22 00:52:52;;;;;;;654.33;455.90;;;;;;;;;;5066734;28;20055;-80
2021/06/22 00:55:34;;;;;;;638.10;443.80;;;;;;;;;;5061643;28;20111;-78
2021/06/22 00:58:00;;;;;;;629.42;435.27;;;;;;;;;;5065289;28;20627;-79
2021/06/22 01:00:26;;;;;;;635.05;444.25;;;;;;;;;;5066389;28;20051;-79
2021/06/22 01:02:53;;;;;;;663.38;463.45;;;;;;;;;;5064987;28;20025;-81
2021/06/22 01:05:19;;;;;;;648.88;447.33;;;;;;;;;;5066871;28;20107;-79
2021/06/22 01:07:45;;;;;;;651.88;454.02;;;;;;;;;;5067172;28;20115;-79
2021/06/22 01:10:11;;;;;;;668.97;467.20;;;;;;;;;;5066925;28;20131;-78
2021/06/22 01:12:37;;;;;;;660.65;456.95;;;;;;;;;;5067879;28;20021;-80
2021/06/22 01:15:11;;;;;;;669.83;456.48;;;;;;;;;;5068552;28;20048;-78
2021/06/22 01:17:36;;;;;;;689.70;478.25;;;;;;;;;;5067484;28;20510;-78
2021/06/22 01:20:03;;;;;;;671.90;455.75;;;;;;;;;;5067395;28;20052;-78
2021/06/22 01:25:36;;;;;;;735.03;512.10;;;;;;;;;;5089022;28;20069;-78
2021/06/22 01:28:03;;;;;;;736.83;518.35;;;;;;;;;;5080776;28;20032;-79
2021/06/22 01:30:29;;;;;;;736.67;519.33;;;;;;;;;;5075611;28;20073;-78
2021/06/22 01:32:56;;;;;;;739.10;522.28;;;;;;;;;;5078604;28;20426;-77
2021/06/22 01:35:23;;;;;;;735.22;520.80;;;;;;;;;;5069485;28;20027;-78
2021/06/22 01:37:54;;;;;;;747.17;543.97;;;;;;;;;;5086825;28;20397;-80
2021/06/22 01:40:20;;;;;;;730.05;521.03;;;;;;;;;;5077888;28;20024;-78
2021/06/22 01:42:46;;;;;;;751.97;545.85;;;;;;;;;;5080553;28;20504;-79
2021/06/22 01:45:13;;;;;;;704.95;495.55;;;;;;;;;;5078255;28;20479;-79
2021/06/22 01:47:43;;;;;;;698.75;478.40;;;;;;;;;;5080853;28;20307;-79
2021/06/22 01:50:09;;;;;;;711.30;505.77;;;;;;;;;;5078112;28;20097;-78
2021/06/22 01:52:35;;;;;;;698.50;487.52;;;;;;;;;;5070911;28;20848;-78
2021/06/22 01:55:34;;;;;;;705.88;496.75;;;;;;;;;;5079725;28;20107;-79
2021/06/22 01:57:48;;;;;;;690.13;474.67;;;;;;;;;;5089569;28;20024;-78
2021/06/22 02:00:15;;;;;;;694.78;486.80;;;;;;;;;;5069562;28;20406;-78
2021/06/22 02:02:40;;;;;;;700.30;497.08;;;;;;;;;;5080735;28;20063;-78
2021/06/22 02:05:08;;;;;;;697.55;479.63;;;;;;;;;;5078252;28;20032;-79
2021/06/22 02:07:34;;;;;;;700.03;485.85;;;;;;;;;;5077938;28;20016;-79
2021/06/22 02:10:00;;;;;;;695.20;481.48;;;;;;;;;;5077792;28;20103;-79
2021/06/22 02:12:26;;;;;;;743.70;536.38;;;;;;;;;;5081202;28;20085;-79
2021/06/22 02:14:52;;;;;;;703.63;489.20;;;;;;;;;;5079019;28;20433;-79
2021/06/22 02:17:19;;;;;;;803.97;614.53;;;;;;;;;;5075827;28;20031;-81
2021/06/22 02:19:45;;;;;;;821.13;599.70;;;;;;;;;;5070451;28;20454;-78
2021/06/22 02:22:11;;;;;;;755.40;544.10;;;;;;;;;;5073883;28;20032;-78
2021/06/22 02:24:38;;;;;;;701.05;482.38;;;;;;;;;;5081133;28;20028;-79
2021/06/22 02:27:04;;;;;;;761.65;552.10;;;;;;;;;;5084043;28;20020;-78
2021/06/22 02:29:30;;;;;;;755.15;535.30;;;;;;;;;;5075124;28;20054;-80
2021/06/22 02:31:56;;;;;;;734.03;518.60;;;;;;;;;;5079877;28;20462;-78
2021/06/22 02:34:22;;;;;;;696.78;476.95;;;;;;;;;;5078603;28;20442;-79
2021/06/22 02:36:48;;;;;;;689.55;475.50;;;;;;;;;;5071431;28;20043;-81
2021/06/22 02:39:14;;;;;;;731.60;505.70;;;;;;;;;;5081783;28;20050;-78
2021/06/22 02:41:40;;;;;;;724.80;508.48;;;;;;;;;;5075013;28;20159;-79
2021/06/22 02:44:06;;;;;;;722.90;506.92;;;;;;;;;;5068807;28;20043;-79
2021/06/22 02:46:31;;;;;;;695.03;475.10;;;;;;;;;;5084147;28;20023;-79
2021/06/22 02:48:57;;;;;;;683.97;465.52;;;;;;;;;;5081901;28;20438;-80
2021/06/22 02:51:23;;;;;;;680.35;466.30;;;;;;;;;;5082066;28;20346;-78
2021/06/22 02:53:49;;;;;;;714.53;499.48;;;;;;;;;;5073961;28;20122;-80
2021/06/22 02:56:16;;;;;;;690.40;469.92;;;;;;;;;;5078207;28;20024;-77
2021/06/22 02:58:41;;;;;;;678.42;466.02;;;;;;;;;;5079799;28;20028;-79
2021/06/22 03:01:07;;;;;;;680.83;462.40;;;;;;;;;;5080726;28;20399;-81
2021/06/22 03:03:33;;;;;;;676.33;459.65;;;;;;;;;;5082181;28;20028;-79
2021/06/22 03:05:59;;;;;;;680.75;470.15;;;;;;;;;;5073179;28;20055;-79
2021/06/22 03:08:25;;;;;;;673.15;450.95;;;;;;;;;;5078485;28;20024;-79
2021/06/22 03:10:51;;;;;;;667.50;458.98;;;;;;;;;;5072909;28;20520;-78
2021/06/22 03:13:17;;;;;;;674.05;463.75;;;;;;;;;;5075478;28;20016;-78
2021/06/22 03:15:43;;;;;;;676.88;473.77;;;;;;;;;;5067089;28;20047;-77
2021/06/22 03:18:09;;;;;;;669.95;455.02;;;;;;;;;;5076970;28;20042;-79
2021/06/22 03:20:35;;;;;;;669.38;455.30;;;;;;;;;;5076436;28;20028;-78
2021/06/22 03:23:01;;;;;;;673.63;464.20;;;;;;;;;;5077430;28;20313;-78
2021/06/22 03:25:27;;;;;;;672.00;467.85;;;;;;;;;;5089406;28;20024;-80
2021/06/22 03:27:53;;;;;;;677.65;470.98;;;;;;;;;;5079898;28;20031;-78
2021/06/22 03:30:19;;;;;;;675.35;465.73;;;;;;;;;;5087107;28;20016;-81
2021/06/22 03:32:47;;;;;;;671.83;451.80;;;;;;;;;;5069706;28;20124;-78
2021/06/22 03:35:13;;;;;;;673.83;455.48;;;;;;;;;;5077709;28;20012;-79
2021/06/22 03:37:39;;;;;;;703.38;484.13;;;;;;;;;;5086473;28;20026;-82
2021/06/22 03:40:06;;;;;;;754.00;533.95;;;;;;;;;;5080766;28;20032;-79
2021/06/22 03:42:33;;;;;;;716.25;496.25;;;;;;;;;;5089830;28;20438;-81
2021/06/22 03:44:59;;;;;;;711.10;495.20;;;;;;;;;;5079971;28;20024;-80
2021/06/22 03:47:25;;;;;;;705.80;482.80;;;;;;;;;;5085204;28;20103;-80
2021/06/22 03:49:51;;;;;;;737.45;523.78;;;;;;;;;;5068408;28;21081;-78
2021/06/22 03:52:17;;;;;;;739.78;521.05;;;;;;;;;;5081339;28;20395;-80
2021/06/22 03:54:42;;;;;;;736.85;515.22;;;;;;;;;;5085417;28;20016;-78
2021/06/22 03:57:08;;;;;;;806.50;591.50;;;;;;;;;;5086017;28;20082;-77
2021/06/22 03:59:34;;;;;;;740.75;518.28;;;;;;;;;;5079817;28;20028;-78
2021/06/22 04:02:00;;;;;;;735.67;518.03;;;;;;;;;;5084640;28;20344;-79
2021/06/22 04:04:26;;;;;;;739.40;531.03;;;;;;;;;;5079901;28;20016;-79
2021/06/22 04:06:52;;;;;;;738.65;526.33;;;;;;;;;;5082028;28;20031;-79
2021/06/22 04:09:25;;;;;;;738.85;534.95;;;;;;;;;;5083092;28;20024;-79
2021/06/22 04:11:51;;;;;;;697.67;493.42;;;;;;;;;;5089963;28;20024;-78
2021/06/22 04:14:17;;;;;;;704.03;499.08;;;;;;;;;;5073277;28;20035;-78
2021/06/22 04:16:43;;;;;;;634.33;449.08;;;;;;;;;;5084646;28;20016;-78
2021/06/22 04:19:09;;;;;;;641.25;444.00;;;;;;;;;;5073867;28;20028;-79
2021/06/22 04:21:35;;;;;;;691.63;497.63;;;;;;;;;;5079267;28;20650;-79
2021/06/22 04:24:01;;;;;;;558.33;382.60;;;;;;;;;;5077123;28;20544;-79
2021/06/22 04:26:27;;;;;;;548.17;375.40;;;;;;;;;;5078751;28;20020;-78
2021/06/22 04:28:53;;;;;;;649.65;454.08;;;;;;;;;;5074704;28;20039;-79
2021/06/22 04:31:19;;;;;;;623.78;444.40;;;;;;;;;;5079936;28;20023;-78
2021/06/22 04:33:45;;;;;;;577.58;409.17;;;;;;;;;;5075102;28;20074;-79
2021/06/22 04:36:11;;;;;;;664.40;483.98;;;;;;;;;;5078176;28;20024;-78
2021/06/22 04:38:37;;;;;;;665.33;471.55;;;;;;;;;;5077531;28;20028;-79
2021/06/22 04:41:03;;;;;;;639.20;451.55;;;;;;;;;;5076614;28;20323;-80
2021/06/22 04:43:29;;;;;;;643.15;456.60;;;;;;;;;;5082243;28;20073;-78
2021/06/22 04:45:55;;;;;;;669.13;485.48;;;;;;;;;;5083628;28;20024;-79
2021/06/22 04:48:21;;;;;;;695.90;504.42;;;;;;;;;;5072458;28;20012;-78
2021/06/22 04:50:47;;;;;;;658.25;471.48;;;;;;;;;;5074894;28;20035;-80
2021/06/22 04:53:13;;;;;;;656.03;466.73;;;;;;;;;;5074741;28;20016;-79
2021/06/22 04:55:39;;;;;;;647.75;461.33;;;;;;;;;;5084079;28;20067;-78
2021/06/22 04:58:05;;;;;;;635.80;442.95;;;;;;;;;;5076475;28;20044;-79
2021/06/22 05:00:31;;;;;;;639.05;457.83;;;;;;;;;;5083306;28;20417;-77
2021/06/22 05:02:57;;;;;;;653.00;464.25;;;;;;;;;;5084961;28;20111;-78
2021/06/22 05:05:25;;;;;;;643.80;471.10;;;;;;;;;;5079939;28;20016;-79
2021/06/22 05:07:51;;;;;;;647.35;460.60;;;;;;;;;;5067898;28;20038;-79
2021/06/22 05:10:17;;;;;;;623.58;439.25;;;;;;;;;;5076700;28;20111;-78
2021/06/22 05:12:43;;;;;;;616.72;439.48;;;;;;;;;;5091051;28;20013;-78
2021/06/22 05:15:10;;;;;;;615.25;430.20;;;;;;;;;;5083239;28;20031;-78
2021/06/22 05:17:36;;;;;;;622.60;444.98;;;;;;;;;;5076284;28;20623;-78
2021/06/22 05:20:04;;;;;;;614.13;439.73;;;;;;;;;;5070723;28;20455;-78
2021/06/22 05:22:29;;;;;;;611.72;436.00;;;;;;;;;;5080810;28;20358;-81
2021/06/22 05:24:56;;;;;;;593.72;424.90;;;;;;;;;;5079754;28;20024;-78
2021/06/22 05:27:22;;;;;;;607.88;444.80;;;;;;;;;;5082170;28;20088;-78
2021/06/22 05:29:48;;;;;;;612.10;439.15;;;;;;;;;;5080352;28;20056;-77
2021/06/22 05:32:17;;;;;;;616.22;447.45;;;;;;;;;;5081801;28;20640;-78
2021/06/22 05:34:42;;;;;;;610.38;425.42;;;;;;;;;;5069721;28;20339;-78
2021/06/22 05:37:08;;;;;;;608.05;433.98;;;;;;;;;;5079227;28;20020;-79
2021/06/22 05:39:34;;;;;;;625.13;455.80;;;;;;;;;;5089921;28;20032;-79
2021/06/22 05:42:01;;;;;;;604.40;439.23;;;;;;;;;;5076204;28;20020;-78
2021/06/22 05:44:27;;;;;;;616.10;448.73;;;;;;;;;;5077373;28;20020;-78
2021/06/22 05:46:53;;;;;;;602.15;432.20;;;;;;;;;;5060733;28;20026;-79
2021/06/22 05:49:19;;;;;;;597.97;427.25;;;;;;;;;;5066612;28;20067;-79
2021/06/22 05:51:46;;;;;;;606.60;435.83;;;;;;;;;;5075308;28;20452;-78
2021/06/22 05:54:12;;;;;;;606.80;439.10;;;;;;;;;;5077572;28;20016;-78
2021/06/22 05:56:38;;;;;;;618.40;452.13;;;;;;;;;;5069647;28;20063;-78
2021/06/22 05:59:04;;;;;;;623.60;461.48;;;;;;;;;;5071376;28;20064;-79
2021/06/22 06:01:30;;;;;;;608.67;434.05;;;;;;;;;;5082297;28;20444;-78
2021/06/22 06:03:56;;;;;;;620.70;457.33;;;;;;;;;;5082508;28;20369;-78
2021/06/22 06:06:22;;;;;;;627.70;460.92;;;;;;;;;;5070449;28;20081;-78
2021/06/22 06:08:48;;;;;;;623.35;449.60;;;;;;;;;;5080683;28;20402;-78
2021/06/22 06:11:14;;;;;;;632.63;475.33;;;;;;;;;;5076926;28;20055;-78
2021/06/22 06:13:40;;;;;;;637.17;476.75;;;;;;;;;;5082942;28;20020;-78
2021/06/22 06:16:06;;;;;;;655.13;487.08;;;;;;;;;;5078503;28;20116;-78
2021/06/22 06:18:33;;;;;;;626.58;466.45;;;;;;;;;;5076710;28;20393;-79
2021/06/22 06:21:01;;;;;;;639.47;478.85;;;;;;;;;;5075775;28;20036;-77
2021/06/22 06:23:31;;;;;;;634.65;479.40;;;;;;;;;;5077453;28;20032;-79
2021/06/22 06:25:57;;;;;;;645.20;491.30;;;;;;;;;;5064137;28;20097;-80
2021/06/22 06:28:33;;;;;;;651.90;492.65;;;;;;;;;;5073676;28;20035;-80
2021/06/22 06:30:59;;;;;;;649.33;479.80;;;;;;;;;;5075229;28;20022;-79
2021/06/22 06:33:25;;;;;;;655.20;490.13;;;;;;;;;;5068941;28;20111;-79
2021/06/22 06:35:53;;;;;;;702.53;533.25;;;;;;;;;;5068039;28;20663;-79
2021/06/22 06:38:19;;;;;;;686.88;526.17;;;;;;;;;;5067885;28;20036;-80
2021/06/22 06:40:45;;;;;;;670.05;507.58;;;;;;;;;;5089251;28;20745;-79
2021/06/22 06:43:11;;;;;;;668.97;510.35;;;;;;;;;;5078253;28;20075;-77
2021/06/22 06:45:37;;;;;;;681.20;528.30;;;;;;;;;;5079192;28;20033;-79
2021/06/22 06:48:03;;;;;;;680.85;533.05;;;;;;;;;;5078969;28;20487;-78
2021/06/22 06:50:29;;;;;;;661.67;515.63;;;;;;;;;;5078829;28;20024;-78
2021/06/22 06:52:55;;;;;;;657.10;505.42;;;;;;;;;;5073479;28;20024;-78
2021/06/22 06:55:28;;;;;;;670.63;522.83;;;;;;;;;;5081896;28;20098;-78
2021/06/22 06:57:54;;;;;;;676.08;527.60;;;;;;;;;;5073553;28;20016;-79
2021/06/22 07:00:21;;;;;;;682.05;530.63;;;;;;;;;;5068521;28;20035;-80
2021/06/22 07:02:47;;;;;;;670.28;524.88;;;;;;;;;;5077824;28;20024;-79
2021/06/22 07:05:13;;;;;;;678.55;537.03;;;;;;;;;;5088017;28;20024;-80
2021/06/22 07:07:39;;;;;;;659.58;517.63;;;;;;;;;;5083429;28;20016;-78
2021/06/22 07:10:05;;;;;;;682.17;536.20;;;;;;;;;;5079677;28;20031;-78
2021/06/22 07:12:31;;;;;;;718.47;576.95;;;;;;;;;;5081163;28;20107;-77
2021/06/22 07:14:57;;;;;;;693.30;546.13;;;;;;;;;;5075221;28;20173;-77
2021/06/22 07:17:23;;;;;;;687.72;536.58;;;;;;;;;;5092017;28;20622;-78
2021/06/22 07:19:49;;;;;;;698.25;557.92;;;;;;;;;;5080594;28;20055;-80
2021/06/22 07:22:14;;;;;;;641.92;508.20;;;;;;;;;;5080567;28;20453;-78
2021/06/22 07:24:41;;;;;;;669.15;527.00;;;;;;;;;;5083528;28;20442;-78
2021/06/22 07:27:07;;;;;;;656.05;513.80;;;;;;;;;;5078639;28;20038;-79
2021/06/22 07:29:33;;;;;;;668.92;534.60;;;;;;;;;;5088008;28;20495;-79
2021/06/22 07:31:59;;;;;;;662.47;524.85;;;;;;;;;;5082029;28;20028;-79
2021/06/22 07:34:25;;;;;;;626.92;500.55;;;;;;;;;;5082311;28;20484;-79
2021/06/22 07:36:51;;;;;;;640.83;510.80;;;;;;;;;;5082375;28;20115;-79
2021/06/22 07:39:17;;;;;;;634.75;502.20;;;;;;;;;;5093005;28;20122;-80
2021/06/22 07:41:43;;;;;;;650.58;513.95;;;;;;;;;;5083384;28;20024;-80
2021/06/22 07:44:09;;;;;;;677.30;545.88;;;;;;;;;;5080818;28;20016;-79
2021/06/22 07:46:35;;;;;;;662.22;527.95;;;;;;;;;;5085370;28;20024;-79
2021/06/22 07:49:01;;;;;;;670.58;546.10;;;;;;;;;;5081637;28;20103;-81
2021/06/22 07:51:27;;;;;;;681.00;554.33;;;;;;;;;;5077579;28;20024;-79
2021/06/22 07:53:53;;;;;;;655.25;532.15;;;;;;;;;;5079962;28;20315;-80
2021/06/22 07:56:19;;;;;;;646.55;512.78;;;;;;;;;;5086497;28;20448;-78
2021/06/22 07:58:45;;;;;;;653.67;525.22;;;;;;;;;;5074442;28;20029;-78
2021/06/22 08:01:11;;;;;;;657.33;529.05;;;;;;;;;;5074831;28;20012;-80
2021/06/22 08:03:37;;;;;;;664.90;547.05;;;;;;;;;;5080719;28;20079;-78
2021/06/22 08:06:04;;;;;;;661.38;538.60;;;;;;;;;;5077054;28;20034;-79
2021/06/22 08:08:31;;;;;;;660.33;536.47;;;;;;;;;;5082062;28;20024;-78
2021/06/22 08:10:57;;;;;;;672.70;559.03;;;;;;;;;;5076900;28;20028;-78
2021/06/22 08:13:24;;;;;;;660.55;547.63;;;;;;;;;;5082516;28;20337;-79
2021/06/22 08:15:51;;;;;;;646.33;537.65;;;;;;;;;;5083655;28;20054;-78
2021/06/22 08:18:17;;;;;;;653.03;553.55;;;;;;;;;;5068124;28;20023;-78
2021/06/22 08:20:44;;;;;;;647.20;534.53;;;;;;;;;;5077124;28;20028;-78
2021/06/22 08:23:10;;;;;;;650.40;550.35;;;;;;;;;;5080135;28;20066;-80
2021/06/22 08:25:37;;;;;;;658.92;550.22;;;;;;;;;;5074543;28;20043;-79
2021/06/22 08:28:03;;;;;;;657.17;559.05;;;;;;;;;;5079318;28;20316;-79
2021/06/22 08:30:30;;;;;;;681.55;576.00;;;;;;;;;;5064498;28;20017;-80
2021/06/22 08:32:56;;;;;;;723.80;634.30;;;;;;;;;;5068975;28;20043;-80
2021/06/22 08:35:24;;;;;;;732.85;643.83;;;;;;;;;;5072632;28;20435;-79
2021/06/22 08:37:50;;;;;;;699.97;606.25;;;;;;;;;;5069266;28;20036;-78
2021/06/22 08:40:16;;;;;;;696.20;604.72;;;;;;;;;;5066014;28;20044;-79
2021/06/22 08:42:42;;;;;;;686.17;597.70;;;;;;;;;;5071016;28;20051;-79
2021/06/22 08:45:09;;;;;;;698.25;613.10;;;;;;;;;;5066962;28;20040;-78
2021/06/22 08:47:35;;;;;;;661.38;558.65;;;;;;;;;;5080349;28;20073;-77
2021/06/22 08:50:01;;;;;;;643.45;545.20;;;;;;;;;;5065844;28;20016;-77
2021/06/22 08:52:32;;;;;;;665.65;576.65;;;;;;;;;;5085344;28;20024;-77
2021/06/22 08:54:59;;;;;;;648.78;556.58;;;;;;;;;;5084346;28;20035;-79
2021/06/22 08:57:26;;;;;;;659.80;563.08;;;;;;;;;;5068878;28;20031;-79
2021/06/22 08:59:54;;;;;;;687.95;594.50;;;;;;;;;;5080760;28;20440;-79
2021/06/22 09:02:38;;;;;;;712.85;624.60;;;;;;;;;;5068803;28;20027;-80
2021/06/22 09:05:06;;;;;;;731.47;649.60;;;;;;;;;;5068952;28;20036;-79
2021/06/22 09:07:48;;;;;;;685.47;586.35;;;;;;;;;;5069698;28;20110;-78
2021/06/22 09:10:20;;;;;;;684.63;580.03;;;;;;;;;;5066815;28;20111;-78
2021/06/22 09:12:47;;;;;;;691.60;589.97;;;;;;;;;;5065598;28;20024;-77
2021/06/22 09:15:21;;;;;;;692.88;589.35;;;;;;;;;;5069977;28;20078;-80
2021/06/22 09:17:50;;;;;;;691.80;592.17;;;;;;;;;;5070680;28;20024;-80
2021/06/22 09:20:44;;;;;;;683.53;578.05;;;;;;;;;;5071203;28;20333;-80
2021/06/22 09:23:22;;;;;;;682.78;578.40;;;;;;;;;;5061825;28;20063;-82
2021/06/22 09:25:49;;;;;;;690.33;591.50;;;;;;;;;;5077021;28;20065;-83
2021/06/22 09:28:16;;;;;;;715.63;611.67;;;;;;;;;;5067774;28;20100;-82
2021/06/22 09:30:44;;;;;;;686.05;598.75;;;;;;;;;;5072417;28;20155;-83
2021/06/22 09:33:24;;;;;;;720.17;637.53;;;;;;;;;;5071415;28;20111;-81
2021/06/22 09:35:56;;;;;;;685.00;601.85;;;;;;;;;;5067565;28;20063;-83
2021/06/22 09:38:22;;;;;;;669.80;593.22;;;;;;;;;;5062864;28;20029;-81
2021/06/22 09:41:03;;;;;;;693.88;617.17;;;;;;;;;;5068769;28;20028;-81
2021/06/22 09:43:35;;;;;;;710.13;633.50;;;;;;;;;;5067426;28;20039;-81
2021/06/22 09:46:01;;;;;;;716.45;639.53;;;;;;;;;;5065919;28;20331;-79
2021/06/22 09:48:27;;;;;;;685.65;610.70;;;;;;;;;;5068734;28;20070;-79
2021/06/22 09:50:55;;;;;;;774.95;695.17;;;;;;;;;;5081412;28;20039;-79
2021/06/22 09:53:29;;;;;;;722.35;645.60;;;;;;;;;;5076560;28;20012;-79
2021/06/22 09:55:55;;;;;;;736.42;657.78;;;;;;;;;;5070212;28;20020;-78
2021/06/22 09:58:40;;;;;;;731.58;653.72;;;;;;;;;;5072273;28;20012;-80
2021/06/22 10:01:27;;;;;;;715.60;638.67;;;;;;;;;;5084722;28;20086;-79
2021/06/22 10:03:55;;;;;;;749.47;670.58;;;;;;;;;;5051493;28;20077;-78
2021/06/22 10:06:21;;;;;;;783.95;703.92;;;;;;;;;;5067174;28;20020;-79
2021/06/22 10:08:52;;;;;;;781.17;702.50;;;;;;;;;;5065876;28;20020;-79
2021/06/22 10:11:19;;;;;;;;;;;;;;;;;;5081177;28;20028;-78
2021/06/22 10:13:45;;;;;;;729.28;654.45;;;;;;;;;;5052461;28;20014;-80
2021/06/22 10:16:24;;;;;;;735.17;660.97;;;;;;;;;;5067342;28;20446;-79
2021/06/22 10:18:50;;;;;;;762.90;686.35;;;;;;;;;;5084387;28;20036;-80
2021/06/22 10:21:17;;;;;;;738.15;661.95;;;;;;;;;;5063165;28;20167;-82
2021/06/22 10:23:43;;;;;;;743.00;665.97;;;;;;;;;;5071326;28;20024;-80
2021/06/22 10:26:09;;;;;;;758.97;680.10;;;;;;;;;;5070494;28;20070;-81
2021/06/22 10:28:36;;;;;;;767.38;687.83;;;;;;;;;;5070558;28;20493;-80
2021/06/22 10:31:02;;;;;;;809.90;730.33;;;;;;;;;;5069767;28;20032;-81
2021/06/22 10:33:28;;;;;;;850.25;770.50;;;;;;;;;;5075385;28;20036;-81
2021/06/22 10:35:54;;;;;;;878.75;798.28;;;;;;;;;;5066593;28;20016;-80
2021/06/22 10:38:22;;;;;;;934.10;849.22;;;;;;;;;;5063799;28;20031;-80
2021/06/22 10:40:56;;;;;;;801.40;725.03;;;;;;;;;;5070304;28;20036;-79
2021/06/22 10:43:38;;;;;;;779.60;702.92;;;;;;;;;;5069286;28;20017;-81
2021/06/22 10:46:07;;;;;;;739.60;664.13;;;;;;;;;;5079253;28;20020;-80
2021/06/22 10:48:44;;;;;;;743.80;669.00;;;;;;;;;;5072696;28;20334;-79
2021/06/22 10:51:32;;;;;;;783.13;707.45;;;;;;;;;;5061614;28;20043;-80
2021/06/22 10:53:59;;;;;;;791.72;715.28;;;;;;;;;;5096116;28;20023;-79
2021/06/22 10:56:26;;;;;;;789.90;713.28;;;;;;;;;;5066082;28;20039;-79
2021/06/22 10:59:10;;;;;;;742.78;668.95;;;;;;;;;;5068305;28;20450;-79
2021/06/22 11:01:55;;;;;;;763.70;686.45;;;;;;;;;;5088749;28;20052;-79
2021/06/22 11:04:22;;;;;;;746.45;669.67;;;;;;;;;;5070416;28;20031;-79
2021/06/22 11:07:01;;;;;;;765.15;686.67;;;;;;;;;;5064171;28;20378;-80
2021/06/22 11:09:26;;;;;;;837.00;755.17;;;;;;;;;;5067037;28;20111;-78
2021/06/22 11:12:11;;;;;;;874.92;793.50;;;;;;;;;;5067692;28;20136;-80
2021/06/22 11:14:56;;;;;;;888.47;805.97;;;;;;;;;;5078556;28;20039;-79
2021/06/22 11:17:37;;;;;;;880.50;797.72;;;;;;;;;;5080839;28;20024;-79
2021/06/22 11:20:04;;;;;;;776.80;699.58;;;;;;;;;;5072760;28;20055;-79
2021/06/22 11:22:49;;;;;;;804.92;724.75;;;;;;;;;;5080874;28;20055;-79
2021/06/22 11:25:15;;;;;;;758.17;681.05;;;;;;;;;;5061074;28;20434;-79
2021/06/22 11:28:01;;;;;;;787.90;710.45;;;;;;;;;;5077683;28;20023;-79
2021/06/22 11:30:47;;;;;;;814.95;736.20;;;;;;;;;;5063561;28;20657;-80
2021/06/22 11:33:31;;;;;;;850.45;771.40;;;;;;;;;;5091282;28;20033;-80
2021/06/22 11:36:16;;;;;;;843.58;766.40;;;;;;;;;;5059950;28;20115;-79
2021/06/22 11:38:45;;;;;;;860.20;781.25;;;;;;;;;;5063532;28;20217;-80
2021/06/22 11:41:15;;;;;;;764.03;691.25;;;;;;;;;;5067050;28;20821;-79
2021/06/22 11:44:00;;;;;;;803.20;727.28;;;;;;;;;;5078786;28;20028;-78
2021/06/22 11:46:32;;;;;;;850.00;768.83;;;;;;;;;;5071070;28;20020;-79
2021/06/22 11:48:59;;;;;;;851.55;769.55;;;;;;;;;;5079009;28;20830;-80
2021/06/22 11:51:43;;;;;;;762.83;685.97;;;;;;;;;;5071791;28;20088;-80
2021/06/22 11:54:10;;;;;;;734.90;658.45;;;;;;;;;;5066989;28;20024;-79
2021/06/22 11:56:36;;;;;;;770.20;691.00;;;;;;;;;;5075844;28;20016;-79
2021/06/22 11:59:02;;;;;;;733.67;656.63;;;;;;;;;;5081463;28;20021;-79
2021/06/22 12:01:28;;;;;;;744.03;666.05;;;;;;;;;;5070760;28;20119;-81
2021/06/22 12:03:55;;;;;;;715.25;639.25;;;;;;;;;;5071096;28;20107;-79
2021/06/22 12:06:24;;;;;;;708.53;633.22;;;;;;;;;;5070190;28;20070;-79
2021/06/22 12:08:50;;;;;;;711.03;634.40;;;;;;;;;;5075422;28;20028;-79
2021/06/22 12:11:30;;;;;;;751.13;672.25;;;;;;;;;;5074057;28;20039;-79
2021/06/22 12:13:56;;;;;;;808.13;724.85;;;;;;;;;;5079347;28;20008;-79
2021/06/22 12:16:25;;;;;;;748.28;669.50;;;;;;;;;;5072276;28;20024;-80
2021/06/22 12:18:52;;;;;;;750.28;671.25;;;;;;;;;;5067975;28;20115;-80
2021/06/22 12:21:19;;;;;;;756.95;677.10;;;;;;;;;;5076201;28;20023;-80
2021/06/22 12:23:44;;;;;;;726.67;649.05;;;;;;;;;;5078164;28;20369;-80
2021/06/22 12:26:12;;;;;;;776.17;694.45;;;;;;;;;;5078572;28;20029;-79
2021/06/22 12:28:39;;;;;;;746.53;667.38;;;;;;;;;;5069055;28;20027;-80
2021/06/22 12:31:05;;;;;;;739.80;661.28;;;;;;;;;;5071271;28;20016;-82
2021/06/22 12:33:39;;;;;;;741.35;662.35;;;;;;;;;;5075647;28;20043;-80
2021/06/22 12:36:06;;;;;;;682.63;608.35;;;;;;;;;;5078258;28;20066;-79
2021/06/22 12:38:32;;;;;;;710.92;634.25;;;;;;;;;;5081002;28;20054;-79
2021/06/22 12:40:59;;;;;;;710.33;633.20;;;;;;;;;;5080082;28;20439;-80
2021/06/22 12:43:42;;;;;;;814.22;729.17;;;;;;;;;;5071297;28;20013;-79
2021/06/22 12:46:08;;;;;;;760.80;679.25;;;;;;;;;;5073060;28;20371;-79
2021/06/22 12:48:35;;;;;;;733.35;654.15;;;;;;;;;;5069658;28;20085;-79
2021/06/22 12:51:01;;;;;;;793.20;710.25;;;;;;;;;;5074031;28;20127;-79
2021/06/22 12:53:30;;;;;;;776.55;694.25;;;;;;;;;;5077581;28;20107;-78
2021/06/22 12:56:15;;;;;;;701.78;624.83;;;;;;;;;;5073377;28;20028;-80
2021/06/22 12:58:45;;;;;;;701.05;623.92;;;;;;;;;;5069330;28;20089;-79
2021/06/22 13:01:42;;;;;;;756.22;674.92;;;;;;;;;;5070578;28;20024;-78
2021/06/22 13:04:10;;;;;;;733.13;653.30;;;;;;;;;;5047258;28;20039;-80
2021/06/22 13:06:56;;;;;;;735.53;655.67;;;;;;;;;;5066889;28;20024;-80
2021/06/22 13:09:24;;;;;;;818.33;733.08;;;;;;;;;;5058533;28;20024;-80
2021/06/22 13:11:55;;;;;;;787.53;550.85;;;;;;;;;;5082861;28;20079;-80
2021/06/22 13:14:31;;;;;;;525.40;456.63;;;;;;;;;;5079816;28;20401;-79
2021/06/22 13:16:59;;;;;;;522.97;448.50;;;;;;;;;;5070812;28;20024;-81
2021/06/22 13:19:33;;;;;;;527.20;458.80;;;;;;;;;;5067136;28;20055;-79
2021/06/22 13:22:01;;;;;;;527.40;464.40;;;;;;;;;;5079510;28;20086;-80
2021/06/22 13:24:36;;;;;;;529.63;470.15;;;;;;;;;;5062974;28;20056;-79
2021/06/22 13:27:06;;;;;;;527.50;460.15;;;;;;;;;;5082547;28;20483;-80
2021/06/22 13:29:53;;;;;;;528.30;458.50;;;;;;;;;;5075308;28;20415;-79
2021/06/22 13:32:46;;;;;;;528.40;458.15;;;;;;;;;;5074780;28;20055;-79
2021/06/22 13:35:20;;;;;;;529.58;455.25;;;;;;;;;;5061041;28;20036;-78
2021/06/22 13:37:53;;;;;;;532.22;457.48;;;;;;;;;;5074501;28;20111;-79
2021/06/22 13:40:20;;;;;;;549.95;477.35;;;;;;;;;;5088912;28;20540;-79
2021/06/22 13:43:05;;;;;;;546.08;472.20;;;;;;;;;;5089013;28;20027;-79
2021/06/22 13:45:36;;;;;;;562.60;483.05;;;;;;;;;;5074083;28;20020;-80
2021/06/22 13:48:03;;;;;;;548.40;468.10;;;;;;;;;;5080427;28;20511;-80
2021/06/22 13:50:29;;;;;;;552.42;472.83;;;;;;;;;;5078074;28;20020;-81
2021/06/22 13:52:56;;;;;;;541.45;461.70;;;;;;;;;;5072919;28;20531;-81
2021/06/22 13:55:33;;;;;;;542.42;467.38;;;;;;;;;;5077903;28;20685;-80
2021/06/22 13:58:09;;;;;;;541.67;461.13;;;;;;;;;;5072686;28;20058;-79
2021/06/22 14:00:36;;;;;;;538.38;459.48;;;;;;;;;;5067977;28;20036;-80
2021/06/22 14:03:03;;;;;;;542.92;470.27;;;;;;;;;;5072545;28;20106;-79
2021/06/22 14:05:32;;;;;;;538.85;460.95;;;;;;;;;;5069756;28;20027;-79